Time;durP1;ratioP1;P1;durP2;ratioP2;P2;SDS_P1;SDS_P2;PMS_P1;PMS_P2;Temp;Humidity;BMP_temperature;BMP_pressure;BME280_temperature;BME280_humidity;BME280_pressure;Samples;Min_cycle;Max_cycle;Signal;HPM_P1;HPM_P2
2023/08/18 00:00:19;;;;;;;6.55;4.07;;;;;;;25.76;45.21;101098.63;5012824;28;20498;-70
2023/08/18 00:02:45;;;;;;;9.93;4.30;;;;;;;25.68;45.42;101086.38;5013335;28;20408;-70
2023/08/18 00:05:10;;;;;;;9.40;4.13;;;;;;;25.65;45.45;101095.03;5012928;28;20458;-70
2023/08/18 00:07:36;;;;;;;6.40;3.80;;;;;;;25.46;45.72;101105.50;5013279;28;20515;-70
2023/08/18 00:10:03;;;;;;;7.03;3.80;;;;;;;25.21;46.37;101091.69;5013443;28;20419;-71
2023/08/18 00:12:29;;;;;;;6.25;3.67;;;;;;;25.06;46.71;101095.09;5012843;28;20380;-70
2023/08/18 00:14:55;;;;;;;7.43;3.90;;;;;;;24.93;46.98;101097.16;5013470;28;20387;-70
2023/08/18 00:17:20;;;;;;;9.13;3.72;;;;;;;24.86;46.88;101106.56;5012434;28;20475;-70
2023/08/18 00:19:47;;;;;;;6.63;4.13;;;;;;;24.89;46.89;101104.16;5012589;28;20380;-70
2023/08/18 00:22:13;;;;;;;8.03;4.23;;;;;;;24.94;46.66;101098.78;5012049;28;20879;-70
2023/08/18 00:24:38;;;;;;;7.93;3.83;;;;;;;25.01;46.49;101090.44;5012353;28;20380;-70
2023/08/18 00:27:04;;;;;;;5.77;3.60;;;;;;;25.00;46.62;101091.53;5012297;28;20444;-70
2023/08/18 00:29:29;;;;;;;7.90;3.90;;;;;;;25.05;46.66;101090.72;5017220;28;20372;-70
2023/08/18 00:31:55;;;;;;;7.93;3.60;;;;;;;25.03;46.69;101082.03;4934946;28;2321901;-70
2023/08/18 00:34:21;;;;;;;8.63;3.92;;;;;;;25.05;46.72;101098.88;5016001;28;20876;-70
2023/08/18 00:36:47;;;;;;;6.53;3.75;;;;;;;24.95;46.82;101084.16;5012588;28;20392;-70
2023/08/18 00:39:12;;;;;;;6.33;3.63;;;;;;;24.94;46.74;101090.66;5011091;28;20385;-70
2023/08/18 00:41:37;;;;;;;8.37;3.80;;;;;;;24.91;46.88;101091.16;5012025;28;20491;-70
2023/08/18 00:44:03;;;;;;;11.27;4.17;;;;;;;24.83;47.00;101088.94;5012117;28;20395;-70
2023/08/18 00:46:30;;;;;;;4.97;3.30;;;;;;;24.79;46.88;101088.63;5012233;28;20384;-70
2023/08/18 00:49:02;;;;;;;6.95;3.70;;;;;;;24.82;46.96;101089.19;5011839;28;20439;-70
2023/08/18 00:51:29;;;;;;;5.65;3.67;;;;;;;24.82;46.95;101086.47;5011785;28;20376;-70
2023/08/18 00:53:55;;;;;;;8.38;3.80;;;;;;;24.79;47.13;101094.06;5011820;28;20856;-70
2023/08/18 00:56:21;;;;;;;9.13;3.70;;;;;;;24.87;46.75;101089.25;5011784;28;20446;-70
2023/08/18 00:58:47;;;;;;;7.10;3.53;;;;;;;24.92;46.71;101081.97;5011733;28;20416;-71
2023/08/18 01:01:13;;;;;;;7.68;3.55;;;;;;;24.97;46.49;101086.59;5010992;28;20419;-71
2023/08/18 01:03:39;;;;;;;7.53;3.93;;;;;;;24.95;46.47;101081.44;5011667;28;20390;-70
2023/08/18 01:06:05;;;;;;;9.02;4.13;;;;;;;24.91;46.58;101085.75;5011775;28;20379;-70
2023/08/18 01:08:31;;;;;;;7.07;3.60;;;;;;;24.77;46.73;101090.75;5011415;28;20454;-70
2023/08/18 01:11:05;;;;;;;6.77;3.90;;;;;;;24.76;46.82;101097.25;5011495;28;20454;-70
2023/08/18 01:14:02;;;;;;;5.47;3.50;;;;;;;24.80;46.66;101092.16;5011397;28;20384;-70
2023/08/18 01:16:29;;;;;;;7.72;3.67;;;;;;;24.82;46.60;101094.59;5010234;28;20384;-70
2023/08/18 01:18:55;;;;;;;6.18;3.80;;;;;;;24.85;46.57;101081.34;5011423;28;20418;-69
2023/08/18 01:21:24;;;;;;;8.30;3.70;;;;;;;24.84;46.49;101090.56;5011563;28;20412;-70
2023/08/18 01:23:50;;;;;;;8.13;3.90;;;;;;;24.83;46.53;101091.66;5011575;28;20416;-69
2023/08/18 01:26:16;;;;;;;6.97;3.70;;;;;;;24.77;46.74;101085.31;5011278;28;20438;-70
2023/08/18 01:28:46;;;;;;;7.00;3.70;;;;;;;24.73;46.86;101089.63;5011411;28;20475;-70
2023/08/18 01:31:15;;;;;;;7.25;3.80;;;;;;;24.68;46.97;101092.28;5011163;28;20477;-70
2023/08/18 01:33:52;;;;;;;6.80;3.78;;;;;;;24.66;46.99;101089.03;5011283;28;20459;-70
2023/08/18 01:36:21;;;;;;;6.88;3.55;;;;;;;24.61;47.08;101084.38;5011056;28;20451;-70
2023/08/18 01:38:50;;;;;;;7.15;4.10;;;;;;;24.63;47.02;101083.28;5010977;28;20426;-70
2023/08/18 01:41:25;;;;;;;9.93;3.72;;;;;;;24.70;46.75;101092.84;5010470;28;20407;-70
2023/08/18 01:43:51;;;;;;;6.88;3.92;;;;;;;24.69;47.08;101093.94;5010433;28;20483;-70
2023/08/18 01:46:16;;;;;;;7.05;4.03;;;;;;;24.67;47.11;101096.09;5010095;28;20432;-70
2023/08/18 01:48:42;;;;;;;6.27;3.70;;;;;;;24.72;46.88;101095.31;5004340;28;20461;-70
2023/08/18 01:51:07;;;;;;;5.83;3.67;;;;;;;24.74;47.00;101087.72;5000861;28;20406;-70
2023/08/18 01:53:33;;;;;;;7.53;4.03;;;;;;;24.73;47.03;101086.91;4998173;28;20479;-70
2023/08/18 01:56:02;;;;;;;7.17;3.93;;;;;;;24.78;46.81;101099.72;4998298;28;20400;-70
2023/08/18 01:58:28;;;;;;;7.25;4.13;;;;;;;24.79;46.98;101091.34;4996462;28;20880;-70
2023/08/18 02:00:58;;;;;;;9.10;4.43;;;;;;;24.84;46.86;101089.75;4997761;28;20400;-69
2023/08/18 02:03:27;;;;;;;9.00;4.25;;;;;;;24.85;46.88;101080.50;4996499;28;20763;-69
2023/08/18 02:05:56;;;;;;;9.20;4.20;;;;;;;24.75;47.08;101086.66;4998138;28;20412;-69
2023/08/18 02:08:22;;;;;;;6.20;3.80;;;;;;;24.67;47.31;101085.25;4995263;28;20415;-70
2023/08/18 02:10:48;;;;;;;6.03;3.90;;;;;;;24.67;47.12;101076.28;4999816;28;20436;-70
2023/08/18 02:13:14;;;;;;;8.45;4.03;;;;;;;24.67;47.21;101073.56;5007799;28;20407;-70
2023/08/18 02:15:39;;;;;;;7.68;3.67;;;;;;;24.72;47.01;101084.47;5007789;28;20471;-70
2023/08/18 02:18:05;;;;;;;8.70;4.17;;;;;;;24.65;47.07;101078.41;5008056;28;20384;-70
2023/08/18 02:20:31;;;;;;;5.65;3.80;;;;;;;24.65;47.07;101081.13;5008248;28;20463;-69
2023/08/18 02:22:57;;;;;;;6.93;3.78;;;;;;;24.68;47.04;101086.06;5009734;28;20484;-70
2023/08/18 02:25:23;;;;;;;7.00;3.83;;;;;;;24.65;47.27;101075.72;5010347;28;20438;-70
2023/08/18 02:27:48;;;;;;;9.07;4.50;;;;;;;24.72;47.34;101088.00;5010172;28;20446;-71
2023/08/18 02:30:14;;;;;;;9.45;3.95;;;;;;;24.71;47.21;101086.38;5009994;28;20391;-70
2023/08/18 02:32:39;;;;;;;7.80;4.22;;;;;;;24.66;47.41;101089.03;5025556;28;20761;-70
2023/08/18 02:35:05;;;;;;;7.30;4.20;;;;;;;24.57;47.48;101085.13;5010350;28;20384;-70
2023/08/18 02:37:31;;;;;;;7.63;3.80;;;;;;;24.57;47.54;101082.41;5010210;28;20380;-70
2023/08/18 02:39:57;;;;;;;6.85;3.90;;;;;;;24.54;47.59;101074.78;5010376;28;20460;-70
2023/08/18 02:42:22;;;;;;;13.23;5.10;;;;;;;24.52;47.75;101079.63;5010153;28;20400;-70
2023/08/18 02:44:48;;;;;;;5.97;3.87;;;;;;;24.44;47.92;101086.31;5010021;28;20396;-70
2023/08/18 02:47:13;;;;;;;7.70;3.70;;;;;;;24.30;48.16;101088.59;5009243;28;20373;-70
2023/08/18 02:49:39;;;;;;;8.32;3.90;;;;;;;24.36;47.83;101090.31;5010408;28;20420;-69
2023/08/18 02:52:05;;;;;;;8.57;5.10;;;;;;;24.30;47.94;101085.88;5010568;28;20372;-70
2023/08/18 02:54:31;;;;;;;12.02;5.07;;;;;;;24.28;48.08;101095.34;5010473;28;20478;-70
2023/08/18 02:56:57;;;;;;;8.03;5.00;;;;;;;24.27;48.18;101099.09;5010263;28;20919;-70
2023/08/18 02:59:23;;;;;;;8.77;5.00;;;;;;;24.20;48.41;101092.00;5009883;28;20380;-69
2023/08/18 03:01:48;;;;;;;7.03;4.33;;;;;;;24.24;48.69;101092.31;5017954;28;20420;-69
2023/08/18 03:04:14;;;;;;;10.43;5.10;;;;;;;24.24;48.58;101103.16;5029869;28;20396;-69
2023/08/18 03:06:40;;;;;;;8.95;4.85;;;;;;;24.15;48.72;101100.06;5029997;28;20378;-69
2023/08/18 03:09:05;;;;;;;11.18;5.38;;;;;;;24.12;48.51;101099.75;5029853;28;20393;-71
2023/08/18 03:11:31;;;;;;;9.00;5.10;;;;;;;24.11;48.71;101108.91;5029576;28;20374;-70
2023/08/18 03:13:56;;;;;;;10.07;4.85;;;;;;;24.12;48.64;101105.16;5029766;28;20436;-70
2023/08/18 03:16:22;;;;;;;11.93;5.57;;;;;;;24.11;48.76;101109.75;5016685;28;20392;-70
2023/08/18 03:18:47;;;;;;;7.77;5.50;;;;;;;24.15;48.69;101110.09;5007532;28;20712;-71
2023/08/18 03:21:13;;;;;;;10.65;5.47;;;;;;;24.15;48.66;101104.66;5017701;28;20387;-71
2023/08/18 03:23:38;;;;;;;11.37;5.90;;;;;;;24.28;48.38;101114.31;5016978;28;20386;-71
2023/08/18 03:26:05;;;;;;;9.10;5.10;;;;;;;24.29;48.42;101105.94;5019899;28;20372;-71
2023/08/18 03:28:34;;;;;;;6.90;4.68;;;;;;;24.19;48.58;101114.72;5021852;28;20737;-72
2023/08/18 03:31:05;;;;;;;7.13;4.45;;;;;;;24.23;48.58;101120.47;5019348;28;20380;-72
2023/08/18 03:33:30;;;;;;;8.27;4.40;;;;;;;24.25;48.57;101118.31;5020688;28;20774;-71
2023/08/18 03:35:56;;;;;;;10.33;4.50;;;;;;;24.34;48.50;101116.00;5017017;28;20382;-71
2023/08/18 03:38:25;;;;;;;8.27;4.20;;;;;;;24.38;48.51;101107.13;5021084;28;20382;-71
2023/08/18 03:40:58;;;;;;;7.35;4.35;;;;;;;24.43;48.35;101125.31;5020811;28;20807;-71
2023/08/18 03:43:23;;;;;;;5.65;4.13;;;;;;;24.46;48.27;101118.59;5022647;28;20419;-71
2023/08/18 03:45:49;;;;;;;7.90;4.55;;;;;;;24.34;48.57;101124.94;5023509;28;20495;-72
2023/08/18 03:48:15;;;;;;;7.70;4.60;;;;;;;24.34;48.64;101134.97;5022604;28;20388;-72
2023/08/18 03:50:40;;;;;;;6.22;4.38;;;;;;;24.31;48.98;101138.16;5023312;28;20376;-72
2023/08/18 03:53:06;;;;;;;5.63;4.43;;;;;;;24.23;48.99;101126.69;5023209;28;21008;-71
2023/08/18 03:55:31;;;;;;;7.00;4.57;;;;;;;24.15;49.34;101129.84;5022833;28;20800;-72
2023/08/18 03:57:57;;;;;;;8.20;4.90;;;;;;;24.14;49.43;101133.63;5012689;28;20856;-71
2023/08/18 04:00:22;;;;;;;8.50;4.70;;;;;;;24.24;49.29;101130.25;5010086;28;20777;-69
2023/08/18 04:02:48;;;;;;;7.43;4.38;;;;;;;24.31;48.99;101136.28;5001569;28;20483;-70
2023/08/18 04:05:14;;;;;;;10.13;5.00;;;;;;;24.36;49.09;101136.34;5011709;28;20480;-69
2023/08/18 04:07:40;;;;;;;8.48;4.90;;;;;;;24.41;48.79;101128.28;5011903;28;20380;-71
2023/08/18 04:10:07;;;;;;;7.60;5.03;;;;;;;24.37;49.25;101142.59;5011483;28;20873;-70
2023/08/18 04:12:32;;;;;;;15.35;5.10;;;;;;;24.39;49.14;101145.88;5015216;28;20386;-70
2023/08/18 04:14:58;;;;;;;13.30;5.13;;;;;;;24.35;49.19;101142.84;5014479;28;20380;-70
2023/08/18 04:17:23;;;;;;;11.83;5.47;;;;;;;24.40;49.41;101144.81;5015409;28;20438;-70
2023/08/18 04:19:49;;;;;;;14.37;6.07;;;;;;;24.43;49.25;101150.53;5013207;28;20385;-70
2023/08/18 04:22:14;;;;;;;14.40;6.00;;;;;;;24.51;49.26;101157.41;5012732;28;20403;-71
2023/08/18 04:24:40;;;;;;;13.17;5.60;;;;;;;24.54;49.36;101151.50;5012471;28;20388;-71
2023/08/18 04:27:05;;;;;;;13.87;5.60;;;;;;;24.51;49.33;101146.56;5012745;28;20380;-72
2023/08/18 04:29:31;;;;;;;13.80;6.90;;;;;;;24.61;49.40;101157.56;5012721;28;20759;-71
2023/08/18 04:31:56;;;;;;;18.77;7.85;;;;;;;24.54;49.57;101151.50;5012530;28;20404;-71
2023/08/18 04:34:22;;;;;;;14.83;7.00;;;;;;;24.54;49.49;101161.50;5012746;28;20388;-70
2023/08/18 04:36:47;;;;;;;12.90;7.00;;;;;;;24.31;50.25;101166.09;5011407;28;20376;-70
2023/08/18 04:39:13;;;;;;;10.77;6.28;;;;;;;24.40;50.25;101166.47;5012300;28;20473;-71
2023/08/18 04:41:38;;;;;;;12.57;5.93;;;;;;;24.36;50.17;101170.75;5012378;28;20400;-70
2023/08/18 04:44:05;;;;;;;9.07;5.40;;;;;;;24.46;50.15;101164.66;5012363;28;20403;-71
2023/08/18 04:46:31;;;;;;;10.55;6.63;;;;;;;24.49;49.94;101169.53;5012386;28;20730;-71
2023/08/18 04:48:57;;;;;;;13.23;7.18;;;;;;;24.55;49.88;101171.28;5012187;28;20410;-69
2023/08/18 04:51:23;;;;;;;15.27;9.75;;;;;;;24.66;49.68;101174.94;5012536;28;20430;-70
2023/08/18 04:53:49;;;;;;;19.17;12.53;;;;;;;24.80;49.33;101178.91;5012041;28;20431;-71
2023/08/18 04:56:15;;;;;;;16.27;10.03;;;;;;;24.84;49.23;101176.50;5012286;28;20395;-71
2023/08/18 04:58:41;;;;;;;14.25;8.20;;;;;;;24.85;49.10;101180.84;5012422;28;20368;-71
2023/08/18 05:01:07;;;;;;;13.60;6.55;;;;;;;24.87;49.32;101193.09;5012115;28;20388;-71
2023/08/18 05:03:33;;;;;;;10.63;6.53;;;;;;;24.93;49.33;101178.50;5012192;28;20853;-71
2023/08/18 05:06:02;;;;;;;11.30;5.97;;;;;;;24.89;49.60;101179.28;5012901;28;20388;-70
2023/08/18 05:08:28;;;;;;;11.50;5.53;;;;;;;25.04;49.57;101184.06;5012502;28;20380;-71
2023/08/18 05:10:57;;;;;;;8.73;5.70;;;;;;;25.11;49.31;101184.66;5012038;28;20993;-71
2023/08/18 05:13:22;;;;;;;11.18;5.65;;;;;;;25.24;49.10;101186.13;5011895;28;20368;-71
2023/08/18 05:15:48;;;;;;;14.77;6.67;;;;;;;25.37;48.91;101188.47;5011784;28;20384;-71
2023/08/18 05:18:14;;;;;;;14.40;6.53;;;;;;;25.47;48.78;101199.41;5011823;28;20372;-70
2023/08/18 05:20:39;;;;;;;14.27;5.73;;;;;;;25.45;48.97;101193.44;5011929;28;20392;-70
2023/08/18 05:23:05;;;;;;;12.77;6.03;;;;;;;25.54;48.92;101191.88;5011402;28;20502;-70
2023/08/18 05:25:31;;;;;;;12.00;5.70;;;;;;;25.54;48.88;101194.59;5000005;28;20428;-71
2023/08/18 05:27:57;;;;;;;9.60;5.18;;;;;;;25.74;48.79;101190.41;4997816;28;20752;-71
2023/08/18 05:30:23;;;;;;;10.95;6.00;;;;;;;25.89;48.44;101192.41;5000029;28;20941;-71
2023/08/18 05:32:48;;;;;;;17.43;6.47;;;;;;;25.89;48.51;101197.84;4998713;28;20420;-71
2023/08/18 05:35:14;;;;;;;10.03;5.40;;;;;;;26.00;48.25;101193.31;4998250;28;20469;-70
2023/08/18 05:37:39;;;;;;;14.18;7.88;;;;;;;26.08;48.04;101201.00;4996847;28;20395;-70
2023/08/18 05:40:05;;;;;;;11.90;7.20;;;;;;;26.09;47.67;101194.47;5000125;28;20392;-71
2023/08/18 05:42:31;;;;;;;13.32;7.15;;;;;;;26.26;47.50;101206.00;5008956;28;20439;-71
2023/08/18 05:44:56;;;;;;;13.47;7.40;;;;;;;26.37;47.11;101200.63;5008863;28;20380;-71
2023/08/18 05:47:22;;;;;;;13.13;7.30;;;;;;;26.45;46.77;101200.09;5025787;28;20851;-71
2023/08/18 05:49:47;;;;;;;12.27;6.40;;;;;;;26.46;46.38;101207.19;5028679;28;20387;-70
2023/08/18 05:52:13;;;;;;;10.67;6.20;;;;;;;26.57;46.26;101202.59;5029058;28;20375;-71
2023/08/18 05:54:38;;;;;;;13.07;6.10;;;;;;;26.67;46.07;101195.34;5031061;28;20378;-70
2023/08/18 05:57:04;;;;;;;11.37;5.73;;;;;;;26.74;46.36;101199.69;5030857;28;20370;-71
2023/08/18 05:59:32;;;;;;;8.10;5.50;;;;;;;26.82;46.07;101205.44;5030947;28;20393;-70
2023/08/18 06:01:58;;;;;;;9.52;5.15;;;;;;;26.92;45.50;101192.97;5018250;28;20406;-70
2023/08/18 06:04:23;;;;;;;9.10;5.20;;;;;;;27.02;45.13;101182.09;5029083;28;20385;-71
2023/08/18 06:06:49;;;;;;;7.95;5.30;;;;;;;27.20;44.82;101186.22;5030535;28;20389;-71
2023/08/18 06:09:14;;;;;;;10.73;5.43;;;;;;;27.38;44.65;101187.63;5030768;28;20451;-70
2023/08/18 06:11:41;;;;;;;11.30;5.03;;;;;;;27.60;43.96;101182.75;5030639;28;20370;-71
2023/08/18 06:14:06;;;;;;;11.27;5.17;;;;;;;27.80;43.75;101189.25;5031034;28;20393;-72
2023/08/18 06:16:32;;;;;;;8.70;4.57;;;;;;;27.95;43.36;101189.25;5030803;28;20375;-73
2023/08/18 06:18:57;;;;;;;9.87;5.10;;;;;;;28.06;42.89;101187.34;5030849;28;20902;-69
2023/08/18 06:21:23;;;;;;;7.03;4.40;;;;;;;28.19;42.34;101188.66;5030468;28;20386;-70
2023/08/18 06:23:48;;;;;;;8.77;4.53;;;;;;;28.29;42.70;101188.63;5030748;28;20476;-70
2023/08/18 06:26:14;;;;;;;7.97;4.32;;;;;;;28.42;42.04;101192.69;5030821;28;20375;-71
2023/08/18 06:28:39;;;;;;;9.15;4.72;;;;;;;28.54;41.63;101193.22;5030761;28;20404;-70
2023/08/18 06:31:06;;;;;;;7.53;4.20;;;;;;;28.68;41.51;101193.41;5030876;28;20480;-70
2023/08/18 06:33:34;;;;;;;7.20;4.43;;;;;;;28.69;41.63;101195.03;5023576;28;20388;-70
2023/08/18 06:35:59;;;;;;;13.38;6.55;;;;;;;28.66;41.92;101201.06;5020502;28;20404;-70
2023/08/18 06:38:25;;;;;;;8.13;4.33;;;;;;;28.64;41.74;101200.53;5027807;28;20430;-71
2023/08/18 06:40:50;;;;;;;8.20;4.50;;;;;;;28.66;42.03;101203.78;5024853;28;20382;-70
2023/08/18 06:43:16;;;;;;;7.63;4.80;;;;;;;28.68;42.18;101217.94;5020675;28;20407;-71
2023/08/18 06:45:42;;;;;;;7.45;4.75;;;;;;;28.77;42.08;101210.84;5021089;28;20422;-69
2023/08/18 06:48:07;;;;;;;10.00;5.00;;;;;;;28.92;41.88;101215.41;5019766;28;20383;-70
2023/08/18 06:50:33;;;;;;;7.82;4.47;;;;;;;28.94;41.81;101204.19;5021571;28;20376;-70
2023/08/18 06:52:58;;;;;;;8.87;4.70;;;;;;;29.06;41.58;101207.38;5027597;28;20461;-70
2023/08/18 06:55:24;;;;;;;9.50;4.73;;;;;;;29.12;41.54;101209.00;5030346;28;20378;-70
2023/08/18 06:57:49;;;;;;;9.97;4.77;;;;;;;29.19;41.39;101207.88;5030254;28;20398;-70
2023/08/18 07:00:15;;;;;;;10.73;4.53;;;;;;;29.21;41.72;101214.69;5031388;28;20386;-69
2023/08/18 07:02:41;;;;;;;7.13;4.72;;;;;;;29.19;41.15;101211.44;5034110;28;20469;-70
2023/08/18 07:05:07;;;;;;;9.27;5.07;;;;;;;29.38;40.80;101210.75;5034034;28;20432;-71
2023/08/18 07:07:35;;;;;;;7.20;4.60;;;;;;;29.47;40.55;101209.03;5034113;28;20379;-72
2023/08/18 07:10:00;;;;;;;7.10;4.70;;;;;;;29.49;40.23;101209.56;5034275;28;20413;-71
2023/08/18 07:12:26;;;;;;;9.20;5.13;;;;;;;29.61;40.18;101215.50;5034512;28;20394;-70
2023/08/18 07:14:51;;;;;;;9.40;4.93;;;;;;;29.68;39.94;101207.78;5034787;28;20375;-70
2023/08/18 07:17:17;;;;;;;10.53;5.00;;;;;;;29.72;39.92;101206.09;5034665;28;20855;-70
2023/08/18 07:19:43;;;;;;;9.60;4.80;;;;;;;29.79;39.54;101211.25;5033893;28;20416;-71
2023/08/18 07:22:09;;;;;;;6.00;4.57;;;;;;;29.93;39.44;101209.50;5033895;28;20430;-70
2023/08/18 07:24:34;;;;;;;9.52;5.22;;;;;;;30.00;39.26;101205.59;5034054;28;20496;-71
2023/08/18 07:27:00;;;;;;;12.17;5.10;;;;;;;30.06;39.03;101209.91;5026316;28;20733;-71
2023/08/18 07:29:26;;;;;;;10.07;5.20;;;;;;;30.15;39.02;101210.09;5028971;28;20378;-70
2023/08/18 07:31:51;;;;;;;11.48;5.30;;;;;;;30.23;38.71;101204.81;5032232;28;20413;-71
2023/08/18 07:34:17;;;;;;;8.10;4.93;;;;;;;30.40;38.64;101209.03;5032147;28;20791;-70
2023/08/18 07:36:42;;;;;;;9.67;5.27;;;;;;;30.56;38.83;101210.47;5032169;28;20723;-70
2023/08/18 07:39:10;;;;;;;7.93;4.80;;;;;;;30.65;38.47;101202.41;5032395;28;20377;-71
2023/08/18 07:41:43;;;;;;;8.00;4.70;;;;;;;30.64;38.17;101207.06;5032914;28;20751;-70
2023/08/18 07:44:08;;;;;;;10.32;4.95;;;;;;;30.67;37.73;101209.22;5033477;28;20378;-70
2023/08/18 07:46:35;;;;;;;8.80;5.10;;;;;;;30.72;37.91;101200.13;5026635;28;20410;-70
2023/08/18 07:49:00;;;;;;;8.00;5.72;;;;;;;30.87;37.54;101202.66;5013288;28;20380;-70
2023/08/18 07:51:27;;;;;;;8.77;5.70;;;;;;;30.93;37.78;101210.81;5012546;28;20394;-73
2023/08/18 07:53:53;;;;;;;8.20;5.10;;;;;;;30.96;37.52;101202.84;5012411;28;20928;-71
2023/08/18 07:56:18;;;;;;;9.30;4.97;;;;;;;31.17;37.11;101202.50;5012594;28;20464;-71
2023/08/18 07:58:44;;;;;;;10.87;5.17;;;;;;;31.20;37.29;101208.22;5012529;28;20877;-72
2023/08/18 08:01:09;;;;;;;10.10;6.55;;;;;;;31.28;37.21;101201.28;5012432;28;20377;-71
2023/08/18 08:03:35;;;;;;;8.93;5.35;;;;;;;31.33;37.30;101192.97;5012936;28;20778;-70
2023/08/18 08:06:04;;;;;;;9.75;5.10;;;;;;;31.41;36.79;101199.69;5014044;28;20391;-74
2023/08/18 08:08:30;;;;;;;9.00;4.95;;;;;;;31.45;36.59;101206.19;5014223;28;20463;-71
2023/08/18 08:10:55;;;;;;;12.55;6.63;;;;;;;31.51;37.03;101196.81;5013266;28;20376;-72
2023/08/18 08:13:21;;;;;;;10.00;5.33;;;;;;;31.63;36.86;101199.06;5013107;28;20372;-70
2023/08/18 08:15:46;;;;;;;7.10;4.80;;;;;;;31.71;35.83;101201.13;5013433;28;20384;-71
2023/08/18 08:18:15;;;;;;;13.50;6.90;;;;;;;31.80;36.35;101198.47;5012844;28;20380;-71
2023/08/18 08:20:41;;;;;;;9.95;5.20;;;;;;;31.79;36.07;101189.47;5013156;28;20473;-70
2023/08/18 08:23:07;;;;;;;9.60;5.70;;;;;;;31.86;36.17;101186.34;5013270;28;20880;-71
2023/08/18 08:25:37;;;;;;;13.63;5.35;;;;;;;31.93;35.77;101186.75;5012891;28;20745;-74
2023/08/18 08:28:03;;;;;;;7.17;4.80;;;;;;;31.99;35.80;101190.19;5012849;28;20391;-70
2023/08/18 08:30:29;;;;;;;7.28;4.63;;;;;;;32.06;35.53;101189.84;5012911;28;20376;-71
2023/08/18 08:32:54;;;;;;;12.83;5.03;;;;;;;32.18;35.55;101192.91;5012435;28;20879;-72
2023/08/18 08:35:20;;;;;;;7.78;4.60;;;;;;;32.22;35.37;101180.19;5012807;28;20880;-71
2023/08/18 08:37:46;;;;;;;10.55;4.93;;;;;;;32.31;35.29;101183.03;5012656;28;20380;-72
2023/08/18 08:40:19;;;;;;;7.87;4.60;;;;;;;32.39;35.44;101182.28;5012690;28;20384;-72
2023/08/18 08:42:45;;;;;;;8.32;4.43;;;;;;;32.42;34.98;101184.44;5012515;28;20419;-71
2023/08/18 08:45:11;;;;;;;7.90;4.40;;;;;;;32.48;35.13;101185.94;5012249;28;20868;-72
2023/08/18 08:47:40;;;;;;;9.80;4.70;;;;;;;32.45;35.12;101183.84;5012615;28;20383;-72
2023/08/18 08:50:07;;;;;;;9.43;4.90;;;;;;;32.60;35.10;101195.63;5012490;28;20864;-70
2023/08/18 08:52:39;;;;;;;6.18;4.55;;;;;;;32.64;34.46;101182.91;5012424;28;20380;-71
2023/08/18 08:55:06;;;;;;;8.40;4.72;;;;;;;32.76;34.64;101180.44;5012552;28;20383;-72
2023/08/18 08:57:31;;;;;;;8.43;4.80;;;;;;;32.79;34.57;101181.75;5007763;28;20439;-71
2023/08/18 08:59:58;;;;;;;7.05;4.80;;;;;;;32.81;34.47;101179.50;4997421;28;20828;-72
2023/08/18 09:02:24;;;;;;;9.50;5.05;;;;;;;32.93;34.65;101185.28;5001972;28;20446;-72
2023/08/18 09:04:49;;;;;;;5.70;4.30;;;;;;;32.92;35.14;101178.16;5000416;28;20423;-71
2023/08/18 09:07:15;;;;;;;9.87;4.70;;;;;;;33.08;34.65;101178.59;4999148;28;20399;-71
2023/08/18 09:09:41;;;;;;;6.45;4.60;;;;;;;33.17;34.25;101176.78;4999317;28;20408;-72
2023/08/18 09:12:08;;;;;;;6.97;4.50;;;;;;;33.33;33.81;101180.78;5008462;28;21202;-73
2023/08/18 09:14:35;;;;;;;5.88;4.38;;;;;;;33.39;33.74;101177.91;5010262;28;20693;-71
2023/08/18 09:17:04;;;;;;;8.20;5.00;;;;;;;33.50;33.90;101169.06;5011689;28;20391;-72
2023/08/18 09:19:30;;;;;;;8.27;4.22;;;;;;;33.63;33.17;101175.59;5011991;28;20376;-71
2023/08/18 09:22:00;;;;;;;9.50;4.63;;;;;;;33.66;32.82;101165.97;5011872;28;20403;-71
2023/08/18 09:24:29;;;;;;;7.35;4.22;;;;;;;33.61;33.11;101168.81;5011352;28;20384;-71
2023/08/18 09:27:04;;;;;;;6.80;4.75;;;;;;;33.71;33.12;101160.31;5011898;28;20385;-72
2023/08/18 09:29:31;;;;;;;6.25;4.55;;;;;;;33.87;32.46;101161.53;5011479;28;20732;-72
2023/08/18 09:31:57;;;;;;;8.23;4.40;;;;;;;33.92;32.38;101160.56;5011634;28;20400;-72
2023/08/18 09:34:23;;;;;;;8.25;4.65;;;;;;;33.90;32.03;101152.63;5011669;28;20749;-71
2023/08/18 09:36:53;;;;;;;7.97;4.50;;;;;;;33.95;32.39;101150.88;5011587;28;20383;-72
2023/08/18 09:39:19;;;;;;;8.75;4.72;;;;;;;33.94;32.04;101158.31;5011745;28;20391;-71
2023/08/18 09:41:52;;;;;;;10.07;5.10;;;;;;;33.88;31.78;101154.09;5011528;28;20408;-71
2023/08/18 09:44:19;;;;;;;9.85;4.70;;;;;;;33.75;31.80;101153.06;5011283;28;20380;-72
2023/08/18 09:46:57;;;;;;;6.20;4.60;;;;;;;33.96;31.66;101156.06;5011457;28;20372;-71
2023/08/18 09:49:25;;;;;;;7.82;4.47;;;;;;;34.06;31.14;101157.72;5011647;28;20404;-71
2023/08/18 09:52:04;;;;;;;6.85;4.78;;;;;;;34.17;30.96;101142.53;5011658;28;20857;-71
2023/08/18 09:54:35;;;;;;;7.40;4.25;;;;;;;34.26;30.79;101140.63;5011578;28;20380;-71
2023/08/18 09:57:07;;;;;;;6.15;4.32;;;;;;;34.25;30.59;101138.19;5011342;28;20466;-70
2023/08/18 09:59:40;;;;;;;7.60;4.65;;;;;;;34.39;30.16;101140.81;5010929;28;20751;-73
2023/08/18 10:02:07;;;;;;;7.25;4.78;;;;;;;34.46;30.58;101133.69;5011195;28;20495;-71
2023/08/18 10:04:42;;;;;;;9.30;4.05;;;;;;;34.39;30.22;101133.34;5011975;28;20453;-72
2023/08/18 10:07:09;;;;;;;5.03;3.80;;;;;;;34.36;30.06;101136.78;5012693;28;20395;-72
2023/08/18 10:09:36;;;;;;;6.27;3.83;;;;;;;34.28;29.77;101123.78;5011878;28;20376;-72
2023/08/18 10:12:01;;;;;;;4.13;3.65;;;;;;;34.41;29.53;101122.88;5011017;28;20430;-71
2023/08/18 10:14:28;;;;;;;7.35;3.70;;;;;;;34.53;29.53;101126.91;5011166;28;20376;-71
2023/08/18 10:16:56;;;;;;;4.47;3.60;;;;;;;34.66;29.65;101117.69;5011485;28;20380;-71
2023/08/18 10:19:44;;;;;;;6.63;3.83;;;;;;;34.78;29.84;101128.88;5011064;28;20396;-72
2023/08/18 10:22:10;;;;;;;10.93;4.00;;;;;;;34.85;29.77;101120.16;5010891;28;20407;-71
2023/08/18 10:24:38;;;;;;;4.93;3.90;;;;;;;34.82;29.82;101118.03;5011426;28;20396;-72
2023/08/18 10:27:07;;;;;;;6.45;4.00;;;;;;;34.84;29.95;101115.75;5010827;28;20380;-70
2023/08/18 10:29:34;;;;;;;6.35;3.65;;;;;;;34.89;29.53;101120.31;5011500;28;20419;-71
2023/08/18 10:32:08;;;;;;;7.28;3.85;;;;;;;34.84;28.91;101124.84;5013234;28;20411;-71
2023/08/18 10:34:33;;;;;;;6.93;4.10;;;;;;;34.74;29.12;101125.16;5029996;28;20386;-71
2023/08/18 10:36:59;;;;;;;6.43;4.07;;;;;;;34.91;29.37;101115.28;5035367;28;20395;-70
2023/08/18 10:39:26;;;;;;;6.13;3.83;;;;;;;35.04;28.70;101119.78;5035652;28;20862;-71
2023/08/18 10:42:07;;;;;;;4.65;3.65;;;;;;;35.05;29.31;101110.41;5035161;28;20460;-72
2023/08/18 10:44:34;;;;;;;7.68;4.10;;;;;;;35.10;28.91;101110.22;5035072;28;20393;-71
2023/08/18 10:47:02;;;;;;;5.10;4.10;;;;;;;35.01;28.97;101103.94;5035400;28;20378;-72
2023/08/18 10:49:28;;;;;;;7.80;4.10;;;;;;;35.08;28.71;101095.97;5034948;28;20950;-71
2023/08/18 10:51:53;;;;;;;5.60;3.97;;;;;;;34.91;28.49;101098.75;5034981;28;20465;-71
2023/08/18 10:54:21;;;;;;;7.45;4.32;;;;;;;34.85;28.81;101092.59;5034872;28;20429;-71
2023/08/18 10:56:47;;;;;;;10.88;7.32;;;;;;;34.99;28.85;101097.94;5034511;28;20716;-72
2023/08/18 10:59:12;;;;;;;9.30;4.40;;;;;;;35.06;28.74;101097.41;5034556;28;20899;-72
2023/08/18 11:01:38;;;;;;;8.90;4.20;;;;;;;35.15;29.07;101095.44;5034366;28;20913;-71
2023/08/18 11:04:04;;;;;;;7.00;3.97;;;;;;;35.17;28.84;101098.72;5015731;28;20411;-69
2023/08/18 11:06:29;;;;;;;4.28;3.80;;;;;;;35.23;29.46;101094.66;5014790;28;20829;-71
2023/08/18 11:08:55;;;;;;;9.53;3.97;;;;;;;35.27;28.98;101084.59;5014805;28;20396;-72
2023/08/18 11:11:20;;;;;;;5.70;3.63;;;;;;;35.28;28.81;101082.66;5014682;28;20382;-71
2023/08/18 11:13:46;;;;;;;7.23;3.70;;;;;;;35.27;28.53;101092.06;5015011;28;20379;-72
2023/08/18 11:16:12;;;;;;;6.47;3.63;;;;;;;35.31;28.65;101084.75;5014564;28;20729;-72
2023/08/18 11:18:41;;;;;;;5.40;4.13;;;;;;;35.32;28.65;101083.63;5014680;28;20404;-72